sensor_id;sensor_type;location;lat;lon;timestamp;pressure;altitude;pressure_sealevel;temperature;humidity
10921;BME280;5513;50.580;8.818;2022-07-09T00:00:06;100179.31;;;17.41;100.00
10921;BME280;5513;50.580;8.818;2022-07-09T00:02:35;100178.50;;;17.52;100.00
10921;BME280;5513;50.580;8.818;2022-07-09T00:05:04;100176.78;;;17.51;100.00
10921;BME280;5513;50.580;8.818;2022-07-09T00:07:34;100177.41;;;17.55;100.00
10921;BME280;5513;50.580;8.818;2022-07-09T00:10:03;100182.50;;;17.46;100.00
10921;BME280;5513;50.580;8.818;2022-07-09T00:12:32;100178.94;;;17.35;100.00
10921;BME280;5513;50.580;8.818;2022-07-09T00:15:01;100185.50;;;17.31;100.00
10921;BME280;5513;50.580;8.818;2022-07-09T00:17:29;100181.22;;;17.28;100.00
10921;BME280;5513;50.580;8.818;2022-07-09T00:19:58;100184.44;;;17.09;100.00
10921;BME280;5513;50.580;8.818;2022-07-09T00:22:28;100181.22;;;17.04;100.00
10921;BME280;5513;50.580;8.818;2022-07-09T00:24:56;100182.31;;;17.02;100.00
10921;BME280;5513;50.580;8.818;2022-07-09T00:27:25;100180.66;;;16.88;100.00
10921;BME280;5513;50.580;8.818;2022-07-09T00:29:55;100172.28;;;16.56;100.00
10921;BME280;5513;50.580;8.818;2022-07-09T00:32:23;100180.88;;;16.36;100.00
10921;BME280;5513;50.580;8.818;2022-07-09T00:34:51;100183.41;;;16.50;100.00
10921;BME280;5513;50.580;8.818;2022-07-09T00:37:20;100185.25;;;16.37;100.00
10921;BME280;5513;50.580;8.818;2022-07-09T00:39:48;100183.97;;;16.42;100.00
10921;BME280;5513;50.580;8.818;2022-07-09T00:42:17;100184.38;;;16.49;100.00
10921;BME280;5513;50.580;8.818;2022-07-09T00:44:45;100177.59;;;16.69;100.00
10921;BME280;5513;50.580;8.818;2022-07-09T00:47:15;100178.38;;;16.71;100.00
10921;BME280;5513;50.580;8.818;2022-07-09T00:49:43;100179.53;;;16.67;100.00
10921;BME280;5513;50.580;8.818;2022-07-09T00:52:14;100175.69;;;16.71;100.00
10921;BME280;5513;50.580;8.818;2022-07-09T00:54:44;100173.56;;;16.63;100.00
10921;BME280;5513;50.580;8.818;2022-07-09T00:57:12;100165.56;;;16.50;100.00
10921;BME280;5513;50.580;8.818;2022-07-09T00:59:41;100168.44;;;16.47;100.00
10921;BME280;5513;50.580;8.818;2022-07-09T01:02:09;100165.34;;;16.53;100.00
10921;BME280;5513;50.580;8.818;2022-07-09T01:04:40;100170.31;;;16.34;100.00
10921;BME280;5513;50.580;8.818;2022-07-09T01:07:08;100167.94;;;16.42;100.00
10921;BME280;5513;50.580;8.818;2022-07-09T01:09:37;100164.69;;;16.50;100.00
10921;BME280;5513;50.580;8.818;2022-07-09T01:12:07;100159.34;;;16.50;100.00
10921;BME280;5513;50.580;8.818;2022-07-09T01:14:35;100153.78;;;16.53;100.00
10921;BME280;5513;50.580;8.818;2022-07-09T01:17:05;100155.31;;;16.44;100.00
10921;BME280;5513;50.580;8.818;2022-07-09T01:19:34;100152.41;;;16.47;100.00
10921;BME280;5513;50.580;8.818;2022-07-09T01:22:04;100156.66;;;16.50;100.00
10921;BME280;5513;50.580;8.818;2022-07-09T01:24:33;100150.47;;;16.49;100.00
10921;BME280;5513;50.580;8.818;2022-07-09T01:27:02;100148.63;;;16.50;100.00
10921;BME280;5513;50.580;8.818;2022-07-09T01:29:30;100151.03;;;16.42;100.00
10921;BME280;5513;50.580;8.818;2022-07-09T01:31:58;100145.75;;;16.53;100.00
10921;BME280;5513;50.580;8.818;2022-07-09T01:34:27;100148.63;;;16.50;100.00
10921;BME280;5513;50.580;8.818;2022-07-09T01:36:55;100147.16;;;16.46;100.00
10921;BME280;5513;50.580;8.818;2022-07-09T01:39:24;100140.97;;;16.45;100.00
10921;BME280;5513;50.580;8.818;2022-07-09T01:41:53;100135.50;;;16.47;100.00
10921;BME280;5513;50.580;8.818;2022-07-09T01:44:21;100134.53;;;16.48;100.00
10921;BME280;5513;50.580;8.818;2022-07-09T01:46:50;100141.94;;;16.44;100.00
10921;BME280;5513;50.580;8.818;2022-07-09T01:49:18;100143.22;;;16.39;100.00
10921;BME280;5513;50.580;8.818;2022-07-09T01:51:47;100137.97;;;16.37;100.00
10921;BME280;5513;50.580;8.818;2022-07-09T01:54:15;100132.13;;;16.32;100.00
10921;BME280;5513;50.580;8.818;2022-07-09T01:56:45;100131.78;;;16.37;100.00
10921;BME280;5513;50.580;8.818;2022-07-09T01:59:14;100135.31;;;16.37;100.00
10921;BME280;5513;50.580;8.818;2022-07-09T02:01:42;100133.09;;;16.31;100.00
10921;BME280;5513;50.580;8.818;2022-07-09T02:04:10;100129.56;;;16.18;100.00
10921;BME280;5513;50.580;8.818;2022-07-09T02:06:39;100123.72;;;16.13;100.00
10921;BME280;5513;50.580;8.818;2022-07-09T02:09:07;100122.75;;;16.14;100.00
10921;BME280;5513;50.580;8.818;2022-07-09T02:11:35;100120.50;;;16.08;100.00
10921;BME280;5513;50.580;8.818;2022-07-09T02:14:05;100119.97;;;16.15;100.00
10921;BME280;5513;50.580;8.818;2022-07-09T02:16:34;100122.03;;;16.12;100.00
10921;BME280;5513;50.580;8.818;2022-07-09T02:19:02;100123.41;;;16.05;100.00
10921;BME280;5513;50.580;8.818;2022-07-09T02:21:31;100115.59;;;16.01;100.00
10921;BME280;5513;50.580;8.818;2022-07-09T02:23:59;100118.25;;;16.01;100.00
10921;BME280;5513;50.580;8.818;2022-07-09T02:26:27;100115.16;;;16.08;100.00
10921;BME280;5513;50.580;8.818;2022-07-09T02:28:56;100104.91;;;16.01;100.00
10921;BME280;5513;50.580;8.818;2022-07-09T02:31:26;100116.16;;;15.94;100.00
10921;BME280;5513;50.580;8.818;2022-07-09T02:33:54;100114.34;;;15.94;100.00
10921;BME280;5513;50.580;8.818;2022-07-09T02:36:23;100105.16;;;15.86;100.00
10921;BME280;5513;50.580;8.818;2022-07-09T02:38:52;100100.66;;;15.86;100.00
10921;BME280;5513;50.580;8.818;2022-07-09T02:41:21;100101.41;;;15.76;100.00
10921;BME280;5513;50.580;8.818;2022-07-09T02:43:49;100098.41;;;15.80;100.00
10921;BME280;5513;50.580;8.818;2022-07-09T02:46:17;100103.34;;;15.73;100.00
10921;BME280;5513;50.580;8.818;2022-07-09T02:48:47;100094.38;;;15.74;100.00
10921;BME280;5513;50.580;8.818;2022-07-09T02:51:15;100090.84;;;15.61;100.00
10921;BME280;5513;50.580;8.818;2022-07-09T02:53:43;100092.84;;;15.58;100.00
10921;BME280;5513;50.580;8.818;2022-07-09T02:56:12;100094.56;;;15.46;100.00
10921;BME280;5513;50.580;8.818;2022-07-09T02:58:40;100094.13;;;15.39;100.00
10921;BME280;5513;50.580;8.818;2022-07-09T03:01:08;100101.28;;;15.26;100.00
10921;BME280;5513;50.580;8.818;2022-07-09T03:03:37;100104.78;;;15.39;100.00
10921;BME280;5513;50.580;8.818;2022-07-09T03:06:07;100097.97;;;15.35;100.00
10921;BME280;5513;50.580;8.818;2022-07-09T03:08:37;100100.09;;;15.43;100.00
10921;BME280;5513;50.580;8.818;2022-07-09T03:11:05;100102.75;;;15.43;100.00
10921;BME280;5513;50.580;8.818;2022-07-09T03:13:34;100102.78;;;15.56;100.00
10921;BME280;5513;50.580;8.818;2022-07-09T03:16:03;100097.41;;;15.43;100.00
10921;BME280;5513;50.580;8.818;2022-07-09T03:18:31;100097.13;;;15.48;100.00
10921;BME280;5513;50.580;8.818;2022-07-09T03:21:00;100106.84;;;15.49;100.00
10921;BME280;5513;50.580;8.818;2022-07-09T03:23:30;100105.66;;;15.53;100.00
10921;BME280;5513;50.580;8.818;2022-07-09T03:25:59;100096.84;;;15.65;100.00
10921;BME280;5513;50.580;8.818;2022-07-09T03:28:27;100096.63;;;15.68;100.00
10921;BME280;5513;50.580;8.818;2022-07-09T03:30:55;100100.25;;;15.67;100.00
10921;BME280;5513;50.580;8.818;2022-07-09T03:33:24;100095.97;;;15.77;100.00
10921;BME280;5513;50.580;8.818;2022-07-09T03:35:53;100095.53;;;15.70;100.00
10921;BME280;5513;50.580;8.818;2022-07-09T03:38:21;100091.91;;;15.71;100.00
10921;BME280;5513;50.580;8.818;2022-07-09T03:40:51;100096.47;;;15.82;100.00
10921;BME280;5513;50.580;8.818;2022-07-09T03:43:19;100089.00;;;15.87;100.00
10921;BME280;5513;50.580;8.818;2022-07-09T03:45:47;100093.06;;;15.93;100.00
10921;BME280;5513;50.580;8.818;2022-07-09T03:48:16;100095.31;;;15.86;100.00
10921;BME280;5513;50.580;8.818;2022-07-09T03:50:44;100101.84;;;15.95;100.00
10921;BME280;5513;50.580;8.818;2022-07-09T03:53:12;100094.31;;;16.00;100.00
10921;BME280;5513;50.580;8.818;2022-07-09T03:55:42;100087.16;;;16.00;100.00
10921;BME280;5513;50.580;8.818;2022-07-09T03:58:12;100084.28;;;16.03;100.00
10921;BME280;5513;50.580;8.818;2022-07-09T04:00:41;100085.25;;;15.90;100.00
10921;BME280;5513;50.580;8.818;2022-07-09T04:03:09;100084.28;;;16.03;100.00
10921;BME280;5513;50.580;8.818;2022-07-09T04:05:37;100086.97;;;15.91;100.00
10921;BME280;5513;50.580;8.818;2022-07-09T04:08:06;100083.75;;;15.98;100.00
10921;BME280;5513;50.580;8.818;2022-07-09T04:10:34;100090.41;;;15.93;100.00
10921;BME280;5513;50.580;8.818;2022-07-09T04:13:03;100087.94;;;15.90;100.00
10921;BME280;5513;50.580;8.818;2022-07-09T04:15:38;100084.59;;;15.99;100.00
10921;BME280;5513;50.580;8.818;2022-07-09T04:18:06;100093.34;;;16.01;100.00
10921;BME280;5513;50.580;8.818;2022-07-09T04:20:34;100098.28;;;16.07;100.00
10921;BME280;5513;50.580;8.818;2022-07-09T04:23:02;100097.06;;;16.11;100.00
10921;BME280;5513;50.580;8.818;2022-07-09T04:25:30;100088.22;;;16.11;100.00
10921;BME280;5513;50.580;8.818;2022-07-09T04:27:58;100091.97;;;16.08;100.00
10921;BME280;5513;50.580;8.818;2022-07-09T04:30:27;100096.66;;;16.17;100.00
10921;BME280;5513;50.580;8.818;2022-07-09T04:32:56;100098.03;;;16.23;100.00
10921;BME280;5513;50.580;8.818;2022-07-09T04:35:27;100097.69;;;16.27;100.00
10921;BME280;5513;50.580;8.818;2022-07-09T04:37:55;100093.44;;;16.25;100.00
10921;BME280;5513;50.580;8.818;2022-07-09T04:40:23;100094.53;;;16.10;100.00
10921;BME280;5513;50.580;8.818;2022-07-09T04:42:52;100098.34;;;16.18;100.00
10921;BME280;5513;50.580;8.818;2022-07-09T04:45:20;100092.94;;;16.44;100.00
10921;BME280;5513;50.580;8.818;2022-07-09T04:47:48;100091.53;;;16.51;100.00
10921;BME280;5513;50.580;8.818;2022-07-09T04:50:18;100086.38;;;16.48;100.00
10921;BME280;5513;50.580;8.818;2022-07-09T04:52:46;100089.03;;;16.60;100.00
10921;BME280;5513;50.580;8.818;2022-07-09T04:55:15;100092.56;;;16.61;100.00
10921;BME280;5513;50.580;8.818;2022-07-09T04:57:43;100086.00;;;16.65;100.00
10921;BME280;5513;50.580;8.818;2022-07-09T05:00:13;100087.94;;;16.63;100.00
10921;BME280;5513;50.580;8.818;2022-07-09T05:02:43;100087.66;;;16.79;100.00
10921;BME280;5513;50.580;8.818;2022-07-09T05:05:13;100086.31;;;16.73;100.00
10921;BME280;5513;50.580;8.818;2022-07-09T05:07:43;100088.16;;;16.73;100.00
10921;BME280;5513;50.580;8.818;2022-07-09T05:10:11;100087.47;;;16.82;100.00
10921;BME280;5513;50.580;8.818;2022-07-09T05:12:40;100089.94;;;16.96;100.00
10921;BME280;5513;50.580;8.818;2022-07-09T05:15:09;100081.69;;;16.99;100.00
10921;BME280;5513;50.580;8.818;2022-07-09T05:17:38;100086.41;;;16.96;100.00
10921;BME280;5513;50.580;8.818;2022-07-09T05:20:08;100087.22;;;17.09;100.00
10921;BME280;5513;50.580;8.818;2022-07-09T05:22:38;100096.78;;;17.00;100.00
10921;BME280;5513;50.580;8.818;2022-07-09T05:25:08;100088.47;;;16.68;100.00
10921;BME280;5513;50.580;8.818;2022-07-09T05:27:41;100096.91;;;16.75;100.00
10921;BME280;5513;50.580;8.818;2022-07-09T05:30:11;100099.47;;;16.76;100.00
10921;BME280;5513;50.580;8.818;2022-07-09T05:32:45;100095.94;;;16.76;100.00
10921;BME280;5513;50.580;8.818;2022-07-09T05:35:14;100095.09;;;16.75;100.00
10921;BME280;5513;50.580;8.818;2022-07-09T05:37:44;100091.78;;;16.72;100.00
10921;BME280;5513;50.580;8.818;2022-07-09T05:40:13;100094.34;;;16.73;100.00
10921;BME280;5513;50.580;8.818;2022-07-09T05:42:42;100100.97;;;16.80;100.00
10921;BME280;5513;50.580;8.818;2022-07-09T05:45:10;100098.28;;;16.80;100.00
10921;BME280;5513;50.580;8.818;2022-07-09T05:47:38;100102.78;;;16.67;100.00
10921;BME280;5513;50.580;8.818;2022-07-09T05:50:07;100108.47;;;16.75;100.00
10921;BME280;5513;50.580;8.818;2022-07-09T05:52:35;100106.81;;;16.85;100.00
10921;BME280;5513;50.580;8.818;2022-07-09T05:55:04;100109.03;;;16.92;100.00
10921;BME280;5513;50.580;8.818;2022-07-09T05:57:35;100108.09;;;17.04;100.00
10921;BME280;5513;50.580;8.818;2022-07-09T06:00:05;100108.63;;;17.09;100.00
10921;BME280;5513;50.580;8.818;2022-07-09T06:02:34;100112.75;;;17.13;100.00
10921;BME280;5513;50.580;8.818;2022-07-09T06:05:02;100104.50;;;17.27;100.00
10921;BME280;5513;50.580;8.818;2022-07-09T06:07:31;100109.66;;;17.30;100.00
10921;BME280;5513;50.580;8.818;2022-07-09T06:09:59;100102.63;;;17.52;100.00
10921;BME280;5513;50.580;8.818;2022-07-09T06:12:27;100098.00;;;17.54;100.00
10921;BME280;5513;50.580;8.818;2022-07-09T06:14:57;100105.06;;;17.55;100.00
10921;BME280;5513;50.580;8.818;2022-07-09T06:17:25;100094.75;;;17.61;100.00
10921;BME280;5513;50.580;8.818;2022-07-09T06:19:53;100101.41;;;17.44;100.00
10921;BME280;5513;50.580;8.818;2022-07-09T06:22:22;100098.72;;;17.56;100.00
10921;BME280;5513;50.580;8.818;2022-07-09T06:24:50;100098.28;;;17.62;100.00
10921;BME280;5513;50.580;8.818;2022-07-09T06:27:18;100098.94;;;17.77;100.00
10921;BME280;5513;50.580;8.818;2022-07-09T06:29:46;100096.97;;;17.90;100.00
10921;BME280;5513;50.580;8.818;2022-07-09T06:32:18;100097.59;;;17.93;100.00
10921;BME280;5513;50.580;8.818;2022-07-09T06:34:46;100094.53;;;18.09;100.00
10921;BME280;5513;50.580;8.818;2022-07-09T06:37:14;100087.59;;;18.18;100.00
10921;BME280;5513;50.580;8.818;2022-07-09T06:39:43;100087.22;;;18.11;100.00
10921;BME280;5513;50.580;8.818;2022-07-09T06:42:16;100092.44;;;18.35;100.00
10921;BME280;5513;50.580;8.818;2022-07-09T06:44:45;100081.44;;;18.49;100.00
10921;BME280;5513;50.580;8.818;2022-07-09T06:47:13;100075.06;;;18.50;100.00
10921;BME280;5513;50.580;8.818;2022-07-09T06:49:43;100075.31;;;18.58;100.00
10921;BME280;5513;50.580;8.818;2022-07-09T06:52:11;100072.88;;;18.67;100.00
10921;BME280;5513;50.580;8.818;2022-07-09T06:54:39;100074.19;;;18.61;100.00
10921;BME280;5513;50.580;8.818;2022-07-09T06:57:08;100067.84;;;18.73;100.00
10921;BME280;5513;50.580;8.818;2022-07-09T06:59:37;100064.69;;;18.68;100.00
10921;BME280;5513;50.580;8.818;2022-07-09T07:02:05;100067.47;;;18.99;100.00
10921;BME280;5513;50.580;8.818;2022-07-09T07:04:34;100071.59;;;18.82;100.00
10921;BME280;5513;50.580;8.818;2022-07-09T07:07:04;100064.91;;;18.76;100.00
10921;BME280;5513;50.580;8.818;2022-07-09T07:09:32;100066.78;;;18.53;100.00
10921;BME280;5513;50.580;8.818;2022-07-09T07:12:01;100059.88;;;18.83;100.00
10921;BME280;5513;50.580;8.818;2022-07-09T07:14:30;100062.66;;;19.13;100.00
10921;BME280;5513;50.580;8.818;2022-07-09T07:16:58;100063.59;;;19.24;100.00
10921;BME280;5513;50.580;8.818;2022-07-09T07:19:27;100062.31;;;19.49;100.00
10921;BME280;5513;50.580;8.818;2022-07-09T07:21:55;100061.66;;;19.35;100.00
10921;BME280;5513;50.580;8.818;2022-07-09T07:24:25;100060.41;;;19.39;100.00
10921;BME280;5513;50.580;8.818;2022-07-09T07:26:54;100061.16;;;19.41;100.00
10921;BME280;5513;50.580;8.818;2022-07-09T07:29:23;100065.94;;;19.59;100.00
10921;BME280;5513;50.580;8.818;2022-07-09T07:31:51;100059.31;;;19.93;100.00
10921;BME280;5513;50.580;8.818;2022-07-09T07:34:20;100066.00;;;19.99;100.00
10921;BME280;5513;50.580;8.818;2022-07-09T07:36:50;100056.78;;;20.01;100.00
10921;BME280;5513;50.580;8.818;2022-07-09T07:39:19;100053.19;;;20.32;100.00
10921;BME280;5513;50.580;8.818;2022-07-09T07:41:53;100055.28;;;20.18;100.00
10921;BME280;5513;50.580;8.818;2022-07-09T07:44:21;100050.50;;;20.41;100.00
10921;BME280;5513;50.580;8.818;2022-07-09T07:46:49;100055.00;;;20.21;100.00
10921;BME280;5513;50.580;8.818;2022-07-09T07:49:18;100049.88;;;20.58;100.00
10921;BME280;5513;50.580;8.818;2022-07-09T07:51:47;100041.81;;;20.78;100.00
10921;BME280;5513;50.580;8.818;2022-07-09T07:54:15;100040.09;;;21.06;100.00
10921;BME280;5513;50.580;8.818;2022-07-09T07:56:43;100034.13;;;20.93;100.00
10921;BME280;5513;50.580;8.818;2022-07-09T07:59:13;100035.97;;;20.92;100.00
10921;BME280;5513;50.580;8.818;2022-07-09T08:01:41;100041.94;;;21.05;100.00
10921;BME280;5513;50.580;8.818;2022-07-09T08:04:09;100045.19;;;21.09;100.00
10921;BME280;5513;50.580;8.818;2022-07-09T08:06:38;100032.56;;;20.90;100.00
10921;BME280;5513;50.580;8.818;2022-07-09T08:09:06;100029.47;;;20.85;100.00
10921;BME280;5513;50.580;8.818;2022-07-09T08:11:34;100038.38;;;21.24;100.00
10921;BME280;5513;50.580;8.818;2022-07-09T08:14:02;100025.97;;;21.51;100.00
10921;BME280;5513;50.580;8.818;2022-07-09T08:16:34;100015.72;;;21.64;100.00
10921;BME280;5513;50.580;8.818;2022-07-09T08:19:02;100013.88;;;21.64;100.00
10921;BME280;5513;50.580;8.818;2022-07-09T08:21:30;100018.22;;;21.19;100.00
10921;BME280;5513;50.580;8.818;2022-07-09T08:23:59;100008.00;;;21.12;100.00
10921;BME280;5513;50.580;8.818;2022-07-09T08:26:31;100018.91;;;21.40;100.00
10921;BME280;5513;50.580;8.818;2022-07-09T08:28:59;100011.94;;;21.47;100.00
10921;BME280;5513;50.580;8.818;2022-07-09T08:31:27;100010.63;;;21.51;100.00
10921;BME280;5513;50.580;8.818;2022-07-09T08:33:57;100007.94;;;21.51;100.00
10921;BME280;5513;50.580;8.818;2022-07-09T08:36:25;100015.09;;;21.42;100.00
10921;BME280;5513;50.580;8.818;2022-07-09T08:38:53;100008.13;;;21.40;100.00
10921;BME280;5513;50.580;8.818;2022-07-09T08:41:22;100012.84;;;21.28;100.00
10921;BME280;5513;50.580;8.818;2022-07-09T08:43:53;100014.13;;;21.61;100.00
10921;BME280;5513;50.580;8.818;2022-07-09T08:46:21;99999.34;;;22.03;100.00
10921;BME280;5513;50.580;8.818;2022-07-09T08:48:50;99993.47;;;22.35;100.00
10921;BME280;5513;50.580;8.818;2022-07-09T08:51:22;99995.25;;;22.62;100.00
10921;BME280;5513;50.580;8.818;2022-07-09T08:53:53;99986.09;;;22.90;100.00
10921;BME280;5513;50.580;8.818;2022-07-09T08:56:22;99976.66;;;22.94;100.00
10921;BME280;5513;50.580;8.818;2022-07-09T08:58:50;99984.06;;;22.92;100.00
10921;BME280;5513;50.580;8.818;2022-07-09T09:01:18;99980.59;;;22.82;100.00
10921;BME280;5513;50.580;8.818;2022-07-09T09:03:46;99980.59;;;22.82;100.00
10921;BME280;5513;50.580;8.818;2022-07-09T09:06:15;99979.91;;;22.62;100.00
10921;BME280;5513;50.580;8.818;2022-07-09T09:08:45;99981.69;;;22.53;100.00
10921;BME280;5513;50.580;8.818;2022-07-09T09:11:15;99972.97;;;22.42;100.00
10921;BME280;5513;50.580;8.818;2022-07-09T09:13:46;99981.59;;;22.00;100.00
10921;BME280;5513;50.580;8.818;2022-07-09T09:16:16;99981.66;;;21.63;100.00
10921;BME280;5513;50.580;8.818;2022-07-09T09:18:45;99980.47;;;21.38;100.00
10921;BME280;5513;50.580;8.818;2022-07-09T09:21:15;99985.94;;;21.56;100.00
10921;BME280;5513;50.580;8.818;2022-07-09T09:23:47;99976.66;;;21.68;100.00
10921;BME280;5513;50.580;8.818;2022-07-09T09:26:16;99985.81;;;21.85;100.00
10921;BME280;5513;50.580;8.818;2022-07-09T09:28:46;99984.47;;;21.61;100.00
10921;BME280;5513;50.580;8.818;2022-07-09T09:31:19;99976.91;;;21.75;100.00
10921;BME280;5513;50.580;8.818;2022-07-09T09:33:48;99980.84;;;21.80;100.00
10921;BME280;5513;50.580;8.818;2022-07-09T09:36:31;99969.94;;;22.45;100.00
10921;BME280;5513;50.580;8.818;2022-07-09T09:39:22;99977.59;;;22.85;100.00
10921;BME280;5513;50.580;8.818;2022-07-09T09:41:53;99958.94;;;23.26;100.00
10921;BME280;5513;50.580;8.818;2022-07-09T09:44:22;99960.63;;;23.53;100.00
10921;BME280;5513;50.580;8.818;2022-07-09T09:46:53;99961.72;;;23.60;100.00
10921;BME280;5513;50.580;8.818;2022-07-09T09:49:22;99966.16;;;23.69;100.00
10921;BME280;5513;50.580;8.818;2022-07-09T09:51:56;99970.44;;;23.54;100.00
10921;BME280;5513;50.580;8.818;2022-07-09T09:54:32;99957.88;;;23.45;100.00
10921;BME280;5513;50.580;8.818;2022-07-09T09:57:05;99965.00;;;22.94;100.00
10921;BME280;5513;50.580;8.818;2022-07-09T09:59:36;99959.69;;;22.48;100.00
10921;BME280;5513;50.580;8.818;2022-07-09T10:04:39;99959.13;;;22.09;100.00
10921;BME280;5513;50.580;8.818;2022-07-09T10:07:08;99952.22;;;22.60;100.00
10921;BME280;5513;50.580;8.818;2022-07-09T10:09:38;99948.25;;;23.16;100.00
10921;BME280;5513;50.580;8.818;2022-07-09T10:12:08;99942.31;;;23.38;100.00
10921;BME280;5513;50.580;8.818;2022-07-09T10:14:37;99937.09;;;23.79;100.00
10921;BME280;5513;50.580;8.818;2022-07-09T10:17:10;99935.66;;;24.09;100.00
10921;BME280;5513;50.580;8.818;2022-07-09T10:19:51;99929.97;;;24.77;100.00
10921;BME280;5513;50.580;8.818;2022-07-09T10:22:21;99926.72;;;25.31;89.15
10921;BME280;5513;50.580;8.818;2022-07-09T10:24:51;99928.25;;;25.64;81.89
10921;BME280;5513;50.580;8.818;2022-07-09T10:27:20;99922.16;;;24.99;88.79
10921;BME280;5513;50.580;8.818;2022-07-09T10:29:55;99915.59;;;25.09;89.89
10921;BME280;5513;50.580;8.818;2022-07-09T10:32:25;99909.28;;;24.27;92.94
10921;BME280;5513;50.580;8.818;2022-07-09T10:34:57;99921.88;;;24.53;91.71
10921;BME280;5513;50.580;8.818;2022-07-09T10:37:40;99913.56;;;24.63;90.98
10921;BME280;5513;50.580;8.818;2022-07-09T10:40:12;99901.84;;;24.87;87.31
10921;BME280;5513;50.580;8.818;2022-07-09T10:42:42;99901.31;;;25.07;87.50
10921;BME280;5513;50.580;8.818;2022-07-09T10:45:21;99906.94;;;25.06;78.23
10921;BME280;5513;50.580;8.818;2022-07-09T10:47:51;99899.31;;;24.85;77.31
10921;BME280;5513;50.580;8.818;2022-07-09T10:50:20;99906.94;;;24.41;81.32
10921;BME280;5513;50.580;8.818;2022-07-09T10:52:48;99901.84;;;24.70;83.20
10921;BME280;5513;50.580;8.818;2022-07-09T10:55:19;99898.66;;;24.75;82.49
10921;BME280;5513;50.580;8.818;2022-07-09T10:57:48;99901.06;;;24.62;84.80
10921;BME280;5513;50.580;8.818;2022-07-09T11:00:17;99896.78;;;24.67;85.20
10921;BME280;5513;50.580;8.818;2022-07-09T11:02:54;99891.31;;;25.55;80.80
10921;BME280;5513;50.580;8.818;2022-07-09T11:05:24;99887.78;;;26.17;74.44
10921;BME280;5513;50.580;8.818;2022-07-09T11:07:57;99892.34;;;25.54;71.39
10921;BME280;5513;50.580;8.818;2022-07-09T11:10:28;99881.53;;;25.46;75.60
10921;BME280;5513;50.580;8.818;2022-07-09T11:12:58;99884.66;;;25.66;70.82
10921;BME280;5513;50.580;8.818;2022-07-09T11:15:28;99888.03;;;26.07;68.54
10921;BME280;5513;50.580;8.818;2022-07-09T11:17:58;99882.59;;;26.53;67.25
10921;BME280;5513;50.580;8.818;2022-07-09T11:20:28;99883.19;;;27.16;64.18
10921;BME280;5513;50.580;8.818;2022-07-09T11:22:57;99873.38;;;26.77;61.48
10921;BME280;5513;50.580;8.818;2022-07-09T11:25:28;99869.94;;;26.98;64.24
10921;BME280;5513;50.580;8.818;2022-07-09T11:27:57;99861.56;;;26.24;64.55
10921;BME280;5513;50.580;8.818;2022-07-09T11:30:28;99863.59;;;26.68;65.81
10921;BME280;5513;50.580;8.818;2022-07-09T11:32:56;99861.53;;;27.22;64.64
10921;BME280;5513;50.580;8.818;2022-07-09T11:35:26;99864.00;;;26.79;64.15
10921;BME280;5513;50.580;8.818;2022-07-09T11:37:55;99857.03;;;26.62;66.12
10921;BME280;5513;50.580;8.818;2022-07-09T11:40:24;99859.13;;;26.37;67.53
10921;BME280;5513;50.580;8.818;2022-07-09T11:42:55;99857.53;;;26.20;62.82
10921;BME280;5513;50.580;8.818;2022-07-09T11:45:25;99855.16;;;25.71;60.70
10921;BME280;5513;50.580;8.818;2022-07-09T11:48:04;99853.78;;;25.75;60.14
10921;BME280;5513;50.580;8.818;2022-07-09T11:50:34;99849.56;;;25.64;62.60
10921;BME280;5513;50.580;8.818;2022-07-09T11:53:19;99847.16;;;25.38;66.76
10921;BME280;5513;50.580;8.818;2022-07-09T11:55:57;99857.53;;;25.27;66.47
10921;BME280;5513;50.580;8.818;2022-07-09T11:58:27;99847.19;;;25.30;67.37
10921;BME280;5513;50.580;8.818;2022-07-09T12:00:55;99844.16;;;25.25;68.33
10921;BME280;5513;50.580;8.818;2022-07-09T12:03:27;99851.38;;;24.86;72.00
10921;BME280;5513;50.580;8.818;2022-07-09T12:05:57;99841.38;;;24.86;74.27
10921;BME280;5513;50.580;8.818;2022-07-09T12:08:27;99850.38;;;24.78;75.81
10921;BME280;5513;50.580;8.818;2022-07-09T12:10:57;99847.84;;;24.77;75.17
10921;BME280;5513;50.580;8.818;2022-07-09T12:13:27;99842.97;;;24.40;78.60
10921;BME280;5513;50.580;8.818;2022-07-09T12:15:56;99840.25;;;24.56;78.26
10921;BME280;5513;50.580;8.818;2022-07-09T12:18:25;99835.31;;;24.60;77.22
10921;BME280;5513;50.580;8.818;2022-07-09T12:20:54;99835.22;;;25.08;76.63
10921;BME280;5513;50.580;8.818;2022-07-09T12:23:22;99829.03;;;25.39;77.22
10921;BME280;5513;50.580;8.818;2022-07-09T12:25:51;99834.56;;;25.46;76.43
10921;BME280;5513;50.580;8.818;2022-07-09T12:28:19;99830.03;;;25.38;74.48
10921;BME280;5513;50.580;8.818;2022-07-09T12:30:49;99826.41;;;25.15;74.68
10921;BME280;5513;50.580;8.818;2022-07-09T12:33:17;99823.88;;;24.97;76.28
10921;BME280;5513;50.580;8.818;2022-07-09T12:35:46;99823.38;;;25.01;77.63
10921;BME280;5513;50.580;8.818;2022-07-09T12:38:14;99812.19;;;25.44;77.26
10921;BME280;5513;50.580;8.818;2022-07-09T12:40:42;99811.44;;;25.27;77.73
10921;BME280;5513;50.580;8.818;2022-07-09T12:43:11;99807.03;;;25.26;75.77
10921;BME280;5513;50.580;8.818;2022-07-09T12:45:39;99805.34;;;25.25;75.45
10921;BME280;5513;50.580;8.818;2022-07-09T12:48:10;99798.56;;;25.60;75.43
10921;BME280;5513;50.580;8.818;2022-07-09T12:50:38;99797.56;;;25.84;75.00
10921;BME280;5513;50.580;8.818;2022-07-09T12:53:06;99788.50;;;25.68;73.90
10921;BME280;5513;50.580;8.818;2022-07-09T12:55:34;99800.97;;;25.47;72.02
10921;BME280;5513;50.580;8.818;2022-07-09T12:58:22;99802.41;;;25.34;75.25
10921;BME280;5513;50.580;8.818;2022-07-09T13:00:50;99805.31;;;24.77;76.73
10921;BME280;5513;50.580;8.818;2022-07-09T13:03:20;99801.88;;;25.00;77.09
10921;BME280;5513;50.580;8.818;2022-07-09T13:05:49;99785.28;;;25.03;75.83
10921;BME280;5513;50.580;8.818;2022-07-09T13:08:19;99797.63;;;25.45;75.35